Time;durP1;ratioP1;P1;durP2;ratioP2;P2;SDS_P1;SDS_P2;PMS_P1;PMS_P2;Temp;Humidity;BMP_temperature;BMP_pressure;BME280_temperature;BME280_humidity;BME280_pressure;Samples;Min_cycle;Max_cycle;Signal;HPM_P1;HPM_P2
2022/07/02 00:02:04;;;;;;;11.27;3.77;;;13.80;99.90;;;;;;5094148;28;20174;-68
2022/07/02 00:04:33;;;;;;;6.30;3.47;;;13.80;99.90;;;;;;5094081;28;20174;-69
2022/07/02 00:07:01;;;;;;;10.50;3.53;;;13.80;99.90;;;;;;5094140;28;20217;-69
2022/07/02 00:09:30;;;;;;;10.70;4.03;;;13.80;99.90;;;;;;5093894;28;20211;-69
2022/07/02 00:11:59;;;;;;;12.13;4.00;;;13.90;99.90;;;;;;5093996;28;20233;-69
2022/07/02 00:14:27;;;;;;;9.50;3.20;;;13.90;99.90;;;;;;5059387;28;20196;-69
2022/07/02 00:16:55;;;;;;;6.77;2.70;;;13.90;99.90;;;;;;5075574;28;20183;-69
2022/07/02 00:19:23;;;;;;;5.50;2.67;;;13.90;99.90;;;;;;5075558;28;20180;-68
2022/07/02 00:21:51;;;;;;;5.07;2.77;;;13.90;99.90;;;;;;5093752;28;20186;-69
2022/07/02 00:24:19;;;;;;;5.77;2.40;;;13.90;99.90;;;;;;5093567;28;20576;-69
2022/07/02 00:26:54;;;;;;;5.53;1.97;;;13.90;99.90;;;;;;5075289;28;20241;-69
2022/07/02 00:29:35;;;;;;;9.40;2.10;;;13.90;99.90;;;;;;5093409;28;20240;-69
2022/07/02 00:32:06;;;;;;;5.00;1.83;;;13.90;99.90;;;;;;5093747;28;20182;-69
2022/07/02 00:34:37;;;;;;;6.30;1.57;;;13.90;99.90;;;;;;5093471;28;20171;-69
2022/07/02 00:37:08;;;;;;;7.33;1.13;;;14.00;99.90;;;;;;5095909;28;20211;-69
2022/07/02 00:39:36;;;;;;;4.00;1.30;;;14.00;99.90;;;;;;5097496;28;20190;-70
2022/07/02 00:42:07;;;;;;;4.10;1.20;;;14.00;99.90;;;;;;5097209;28;20216;-69
2022/07/02 00:44:35;;;;;;;3.33;0.93;;;14.00;99.90;;;;;;5095082;28;20174;-68
2022/07/02 00:47:08;;;;;;;4.93;1.00;;;14.00;99.90;;;;;;5093409;28;20271;-68
2022/07/02 00:49:38;;;;;;;5.00;1.40;;;14.00;99.90;;;;;;5093181;28;20579;-69
2022/07/02 00:52:07;;;;;;;3.83;1.30;;;14.00;99.90;;;;;;5093221;28;20210;-69
2022/07/02 00:54:36;;;;;;;3.00;1.10;;;14.00;99.90;;;;;;5093377;28;20181;-69
2022/07/02 00:57:04;;;;;;;3.57;1.40;;;14.00;99.90;;;;;;5092891;28;20187;-69
2022/07/02 00:59:33;;;;;;;3.27;1.30;;;14.00;99.90;;;;;;5093261;28;20546;-69
2022/07/02 01:02:01;;;;;;;7.50;1.40;;;14.10;99.90;;;;;;5093116;28;20263;-70
2022/07/02 01:04:32;;;;;;;2.90;1.40;;;14.10;99.90;;;;;;5093226;28;20178;-69
2022/07/02 01:07:05;;;;;;;2.80;1.13;;;14.20;99.90;;;;;;5093563;28;20531;-69
2022/07/02 01:12:33;;;;;;;5.30;0.93;;;14.40;99.90;;;;;;5093204;28;20592;-69
2022/07/02 01:15:01;;;;;;;6.60;1.27;;;14.50;99.90;;;;;;5092996;28;20190;-70
2022/07/02 01:17:29;;;;;;;3.77;1.00;;;14.70;99.90;;;;;;5092877;28;20172;-69
2022/07/02 01:19:56;;;;;;;3.37;1.40;;;14.70;99.90;;;;;;5093108;28;20224;-69
2022/07/02 01:22:32;;;;;;;6.10;2.83;;;14.80;99.90;;;;;;5092912;28;20206;-69
2022/07/02 01:24:59;;;;;;;3.67;1.70;;;14.90;99.90;;;;;;5093163;28;20174;-69
2022/07/02 01:27:27;;;;;;;6.27;1.57;;;14.90;99.90;;;;;;5092735;28;20313;-69
2022/07/02 01:29:55;;;;;;;4.43;1.57;;;14.90;99.90;;;;;;5093085;28;20298;-69
2022/07/02 01:32:23;;;;;;;6.77;2.10;;;14.90;99.90;;;;;;5092882;28;20629;-69
2022/07/02 01:35:16;;;;;;;6.00;1.20;;;15.00;99.90;;;;;;5092831;28;20641;-69
2022/07/02 01:37:44;;;;;;;2.67;1.10;;;15.00;99.90;;;;;;5089636;28;20620;-69
2022/07/02 01:40:12;;;;;;;6.87;1.40;;;15.00;99.90;;;;;;5095634;28;20538;-70
2022/07/02 01:42:40;;;;;;;3.90;1.50;;;15.10;99.90;;;;;;5096838;28;20242;-69
2022/07/02 01:45:08;;;;;;;2.60;1.20;;;15.10;99.90;;;;;;5096762;28;20175;-69
2022/07/02 01:47:36;;;;;;;3.50;1.17;;;15.10;99.90;;;;;;5096916;28;20231;-70
2022/07/02 01:50:04;;;;;;;2.53;1.10;;;15.20;99.90;;;;;;5096275;28;20211;-69
2022/07/02 01:52:32;;;;;;;4.17;1.60;;;15.20;99.90;;;;;;5096626;28;20174;-67
2022/07/02 01:55:00;;;;;;;1.87;1.20;;;15.20;99.90;;;;;;5096965;28;20177;-68
2022/07/02 01:57:35;;;;;;;2.67;1.20;;;15.20;99.90;;;;;;5096360;28;20179;-69
2022/07/02 02:00:12;;;;;;;2.03;0.80;;;15.20;99.90;;;;;;5096504;28;20167;-69
2022/07/02 02:02:40;;;;;;;4.30;1.17;;;15.10;99.90;;;;;;5096528;28;20651;-68
2022/07/02 02:05:08;;;;;;;1.60;1.10;;;15.20;99.90;;;;;;5078622;28;20187;-68
2022/07/02 02:07:36;;;;;;;1.43;1.10;;;15.30;99.90;;;;;;5096429;28;20176;-68
2022/07/02 02:10:04;;;;;;;2.10;0.90;;;15.30;99.90;;;;;;5096186;28;20237;-68
2022/07/02 02:12:32;;;;;;;1.53;1.20;;;15.40;99.90;;;;;;5078089;28;20179;-69
2022/07/02 02:14:59;;;;;;;2.83;1.20;;;15.30;99.90;;;;;;5096489;28;20330;-69
2022/07/02 02:17:27;;;;;;;2.37;0.90;;;15.50;99.90;;;;;;5096098;28;20176;-69
2022/07/02 02:19:55;;;;;;;1.83;0.77;;;15.50;99.90;;;;;;5096056;28;20321;-69
2022/07/02 02:22:24;;;;;;;3.57;1.20;;;15.50;99.90;;;;;;5077922;28;20222;-69
2022/07/02 02:24:52;;;;;;;2.23;0.80;;;15.50;99.90;;;;;;5095780;28;20175;-69
2022/07/02 02:27:19;;;;;;;2.00;1.10;;;15.50;99.90;;;;;;5095844;28;20226;-69
2022/07/02 02:29:47;;;;;;;2.57;1.43;;;15.50;99.90;;;;;;5095811;28;20209;-69
2022/07/02 02:32:16;;;;;;;3.47;1.90;;;15.40;99.90;;;;;;5096262;28;20262;-69
2022/07/02 02:34:43;;;;;;;1.47;1.27;;;15.40;99.90;;;;;;5095838;28;20202;-69
2022/07/02 02:37:11;;;;;;;2.77;1.70;;;15.50;99.90;;;;;;5095751;28;20186;-69
2022/07/02 02:39:39;;;;;;;1.33;1.23;;;15.60;99.90;;;;;;5095774;28;20171;-69
2022/07/02 02:42:07;;;;;;;3.67;1.83;;;15.70;99.90;;;;;;5095784;28;20173;-69
2022/07/02 02:44:34;;;;;;;3.07;1.90;;;15.70;99.90;;;;;;5095622;28;20175;-69
2022/07/02 02:47:03;;;;;;;4.17;2.40;;;15.80;99.90;;;;;;5095616;28;20196;-69
2022/07/02 02:49:30;;;;;;;2.33;1.60;;;15.80;99.90;;;;;;5095542;28;20214;-70
2022/07/02 02:51:58;;;;;;;3.67;1.70;;;15.80;99.90;;;;;;5094321;28;20171;-69
2022/07/02 02:54:26;;;;;;;3.43;1.90;;;15.90;99.90;;;;;;5095240;28;20202;-69
2022/07/02 02:56:53;;;;;;;4.13;1.57;;;15.90;99.90;;;;;;5095409;28;20199;-69
2022/07/02 02:59:22;;;;;;;3.53;1.77;;;16.00;99.90;;;;;;5095266;28;20688;-70
2022/07/02 03:01:49;;;;;;;5.87;1.90;;;16.10;99.90;;;;;;5095393;28;20179;-69
2022/07/02 03:04:17;;;;;;;2.23;1.63;;;16.00;99.90;;;;;;5095103;28;20179;-69
2022/07/02 03:06:45;;;;;;;4.13;1.67;;;16.10;99.90;;;;;;5095551;28;20171;-68
2022/07/02 03:09:12;;;;;;;3.40;1.40;;;15.80;99.90;;;;;;5094938;28;20263;-68
2022/07/02 03:11:40;;;;;;;4.47;1.67;;;15.60;99.90;;;;;;5095249;28;20254;-68
2022/07/02 03:14:08;;;;;;;3.33;1.57;;;15.60;99.90;;;;;;5094999;28;20175;-68
2022/07/02 03:16:35;;;;;;;2.53;1.70;;;15.60;99.90;;;;;;5094777;28;20395;-68
2022/07/02 03:19:03;;;;;;;3.70;1.90;;;15.60;99.90;;;;;;5095015;28;20168;-69
2022/07/02 03:21:31;;;;;;;1.93;1.23;;;15.50;99.90;;;;;;5094978;28;20203;-68
2022/07/02 03:23:59;;;;;;;4.30;1.50;;;15.30;99.90;;;;;;5094892;28;20172;-69
2022/07/02 03:26:26;;;;;;;4.20;2.73;;;15.20;99.90;;;;;;5094983;28;20171;-69
2022/07/02 03:28:54;;;;;;;5.67;2.07;;;15.30;99.90;;;;;;5094555;28;20701;-69
2022/07/02 03:31:22;;;;;;;5.17;2.53;;;15.30;99.90;;;;;;5094731;28;20182;-69
2022/07/02 03:33:49;;;;;;;4.30;2.33;;;15.20;99.90;;;;;;5094616;28;20169;-69
2022/07/02 03:36:17;;;;;;;5.50;1.83;;;15.20;99.90;;;;;;5094693;28;20179;-68
2022/07/02 03:38:45;;;;;;;2.10;1.30;;;15.20;99.90;;;;;;5076280;28;20250;-69
2022/07/02 03:41:13;;;;;;;2.40;1.60;;;15.10;99.90;;;;;;5094739;28;20678;-69
2022/07/02 03:43:40;;;;;;;5.27;1.80;;;15.10;99.90;;;;;;5094688;28;20217;-69
2022/07/02 03:46:08;;;;;;;3.00;1.27;;;15.10;99.90;;;;;;5094301;28;20531;-68
2022/07/02 03:48:36;;;;;;;3.93;1.70;;;15.10;99.90;;;;;;5094469;28;20587;-69
2022/07/02 03:51:04;;;;;;;3.13;1.20;;;15.00;99.90;;;;;;5094269;28;20324;-69
2022/07/02 03:53:31;;;;;;;3.63;1.63;;;15.00;99.90;;;;;;5094364;28;20270;-68
2022/07/02 03:55:59;;;;;;;4.67;1.50;;;14.90;99.90;;;;;;5094204;28;20187;-68
2022/07/02 03:58:27;;;;;;;6.87;1.90;;;14.80;99.90;;;;;;5093935;28;20657;-68
2022/07/02 04:00:54;;;;;;;3.50;1.77;;;14.80;99.90;;;;;;5094098;28;20206;-68
2022/07/02 04:03:22;;;;;;;4.97;2.10;;;14.80;99.90;;;;;;5093658;28;20291;-69
2022/07/02 04:05:50;;;;;;;4.63;1.73;;;14.80;99.90;;;;;;5093840;28;20175;-69
2022/07/02 04:08:18;;;;;;;5.73;2.20;;;14.80;99.90;;;;;;5094177;28;20278;-68
2022/07/02 04:10:46;;;;;;;7.70;1.93;;;14.80;99.90;;;;;;5094008;28;20211;-68
2022/07/02 04:13:14;;;;;;;10.53;2.20;;;14.70;99.90;;;;;;5093963;28;20261;-69
2022/07/02 04:15:43;;;;;;;10.00;2.13;;;14.60;99.90;;;;;;5075463;28;20240;-68
2022/07/02 04:18:11;;;;;;;8.53;2.57;;;14.60;99.90;;;;;;5074980;28;20209;-69
2022/07/02 04:20:38;;;;;;;11.33;2.17;;;14.50;99.90;;;;;;5073913;28;20194;-70
2022/07/02 04:23:07;;;;;;;11.73;2.57;;;14.50;99.90;;;;;;5093194;28;20182;-68
2022/07/02 04:25:34;;;;;;;16.13;2.67;;;14.50;99.90;;;;;;5089422;28;20271;-68
2022/07/02 04:28:02;;;;;;;11.93;2.93;;;14.50;99.90;;;;;;5093447;28;20229;-68
2022/07/02 04:30:30;;;;;;;9.27;1.97;;;14.50;99.90;;;;;;5088923;28;20211;-68
2022/07/02 04:32:58;;;;;;;9.47;1.97;;;14.50;99.90;;;;;;5082661;28;20195;-68
2022/07/02 04:35:25;;;;;;;10.27;2.63;;;14.50;99.90;;;;;;5092309;28;20552;-66
2022/07/02 04:37:53;;;;;;;6.87;1.67;;;14.60;99.90;;;;;;5092120;28;20183;-67
2022/07/02 04:40:21;;;;;;;9.30;2.00;;;14.50;99.90;;;;;;5092026;28;20285;-67
2022/07/02 04:42:48;;;;;;;14.83;2.30;;;14.40;99.90;;;;;;5088930;28;20172;-66
2022/07/02 04:45:16;;;;;;;7.57;1.87;;;14.50;99.90;;;;;;5064243;28;20219;-67
2022/07/02 04:47:44;;;;;;;13.10;1.93;;;14.50;99.90;;;;;;5071972;28;20263;-67
2022/07/02 04:50:11;;;;;;;9.30;2.30;;;14.50;99.90;;;;;;5073649;28;20199;-67
2022/07/02 04:52:39;;;;;;;10.93;2.47;;;14.50;99.90;;;;;;5091290;28;20186;-67
2022/07/02 04:55:07;;;;;;;8.93;2.40;;;14.50;99.90;;;;;;5092050;28;20220;-67
2022/07/02 04:57:36;;;;;;;10.13;2.60;;;14.50;99.90;;;;;;5091927;28;20710;-67
2022/07/02 05:00:05;;;;;;;17.07;2.57;;;14.50;99.90;;;;;;5073909;28;20188;-66
2022/07/02 05:02:32;;;;;;;17.77;2.50;;;14.50;99.90;;;;;;5091456;28;20182;-68
2022/07/02 05:05:00;;;;;;;17.83;3.87;;;14.50;99.90;;;;;;5091903;28;20185;-68
2022/07/02 05:07:28;;;;;;;12.23;2.40;;;14.50;99.90;;;;;;5091598;28;20554;-68
2022/07/02 05:09:57;;;;;;;11.13;2.23;;;14.50;99.90;;;;;;5091677;28;20210;-68
2022/07/02 05:12:25;;;;;;;9.73;1.80;;;14.50;99.90;;;;;;5087475;28;20176;-68
2022/07/02 05:14:53;;;;;;;10.83;2.23;;;14.40;99.90;;;;;;5085713;28;20181;-67
2022/07/02 05:17:20;;;;;;;8.00;1.83;;;14.40;99.90;;;;;;5084609;28;20171;-68
2022/07/02 05:19:48;;;;;;;9.23;1.90;;;14.40;99.90;;;;;;5086412;28;20171;-68
2022/07/02 05:22:16;;;;;;;10.97;2.60;;;14.40;99.90;;;;;;5085933;28;20528;-68
2022/07/02 05:24:43;;;;;;;15.27;7.90;;;14.40;99.90;;;;;;5084181;28;20182;-67
2022/07/02 05:27:11;;;;;;;21.90;19.73;;;14.40;99.90;;;;;;5086704;28;20689;-67
2022/07/02 05:29:39;;;;;;;26.10;24.30;;;14.40;99.90;;;;;;5086923;28;20203;-67
2022/07/02 05:32:07;;;;;;;28.03;25.70;;;14.40;99.90;;;;;;5084378;28;20179;-67
2022/07/02 05:34:35;;;;;;;29.37;27.30;;;14.40;99.90;;;;;;5087721;28;20180;-68
2022/07/02 05:37:02;;;;;;;30.50;28.10;;;14.40;99.90;;;;;;5083948;28;20295;-68
2022/07/02 05:39:30;;;;;;;31.67;29.20;;;14.40;99.90;;;;;;5093359;28;20210;-67
2022/07/02 05:42:04;;;;;;;32.13;29.73;;;14.40;99.90;;;;;;5094465;28;20189;-67
2022/07/02 05:44:32;;;;;;;31.80;29.30;;;14.40;99.90;;;;;;5086047;28;20188;-67
2022/07/02 05:46:59;;;;;;;33.57;30.70;;;14.40;99.90;;;;;;5085420;28;20292;-68
2022/07/02 05:49:27;;;;;;;32.73;29.77;;;14.40;99.90;;;;;;5085373;28;20203;-68
2022/07/02 05:51:55;;;;;;;33.30;30.33;;;14.40;99.90;;;;;;5083768;28;20176;-69
2022/07/02 05:54:23;;;;;;;33.70;30.57;;;14.40;99.90;;;;;;5079337;28;20175;-70
2022/07/02 05:56:50;;;;;;;30.97;28.73;;;14.40;99.90;;;;;;5079140;28;20207;-69
2022/07/02 05:59:18;;;;;;;33.27;30.30;;;14.40;99.90;;;;;;5076329;28;20231;-68
2022/07/02 06:01:46;;;;;;;33.07;30.47;;;14.40;99.90;;;;;;5075024;28;20585;-69
2022/07/02 06:04:13;;;;;;;33.73;30.70;;;14.40;99.90;;;;;;5074832;28;20646;-68
2022/07/02 06:09:27;;;;;;;33.10;30.30;;;14.30;99.90;;;;;;5095206;28;20277;-67
2022/07/02 06:11:55;;;;;;;32.50;29.27;;;14.30;99.90;;;;;;5095017;28;20190;-69
2022/07/02 06:14:23;;;;;;;32.90;30.07;;;14.30;99.90;;;;;;5094905;28;20182;-68
2022/07/02 06:16:50;;;;;;;33.00;30.07;;;14.30;99.90;;;;;;5094909;28;20189;-67
2022/07/02 06:19:18;;;;;;;32.20;29.17;;;14.30;99.90;;;;;;5094577;28;20194;-67
2022/07/02 06:21:45;;;;;;;32.77;29.57;;;14.30;99.90;;;;;;5094525;28;20653;-67
2022/07/02 06:24:12;;;;;;;34.33;31.40;;;14.30;99.90;;;;;;5094628;28;20175;-67
2022/07/02 06:26:40;;;;;;;34.83;31.83;;;14.30;99.90;;;;;;5094151;28;20213;-67
2022/07/02 06:29:07;;;;;;;31.50;28.60;;;14.30;99.90;;;;;;5094433;28;20704;-68
2022/07/02 06:31:35;;;;;;;34.70;31.70;;;14.30;99.90;;;;;;5094352;28;20228;-67
2022/07/02 06:34:02;;;;;;;34.30;31.67;;;14.30;99.90;;;;;;5094104;28;20200;-67
2022/07/02 06:36:30;;;;;;;34.97;32.20;;;14.30;99.90;;;;;;5094106;28;20268;-67
2022/07/02 06:38:58;;;;;;;35.00;32.10;;;14.40;99.90;;;;;;5094551;28;20186;-67
2022/07/02 06:44:10;;;;;;;38.17;35.20;;;14.40;99.90;;;;;;5094309;28;20239;-68
2022/07/02 06:46:40;;;;;;;41.40;37.50;;;14.40;99.90;;;;;;5093809;28;20199;-68
2022/07/02 06:49:08;;;;;;;42.93;39.43;;;14.50;99.90;;;;;;5094010;28;20632;-68
2022/07/02 06:51:35;;;;;;;65.20;59.90;;;14.50;99.90;;;;;;5093955;28;20536;-68
2022/07/02 06:54:02;;;;;;;44.13;39.73;;;14.50;99.90;;;;;;5094012;28;20186;-67
2022/07/02 06:56:36;;;;;;;43.87;40.13;;;14.50;99.90;;;;;;5093627;28;20190;-68
2022/07/02 06:59:04;;;;;;;45.53;40.37;;;14.50;99.90;;;;;;5094252;28;20216;-68
2022/07/02 07:01:32;;;;;;;45.17;41.03;;;14.50;99.90;;;;;;5093850;28;20171;-68
2022/07/02 07:03:59;;;;;;;49.80;44.60;;;14.60;99.90;;;;;;5094003;28;20758;-68
2022/07/02 07:06:27;;;;;;;48.00;43.30;;;14.60;99.90;;;;;;5093623;28;20691;-68
2022/07/02 07:08:54;;;;;;;48.70;44.20;;;14.60;99.90;;;;;;5094035;28;20174;-67
2022/07/02 07:11:23;;;;;;;47.37;43.23;;;14.60;99.90;;;;;;5093838;28;20706;-67
2022/07/02 07:13:50;;;;;;;48.00;43.90;;;14.50;99.90;;;;;;5093743;28;20250;-67
2022/07/02 07:16:18;;;;;;;47.23;43.07;;;14.50;99.90;;;;;;5092623;28;20859;-68
2022/07/02 07:19:27;;;;;;;45.30;41.90;;;14.40;99.90;;;;;;5059007;28;20183;-67
2022/07/02 07:21:37;;;;;;;45.73;41.93;;;14.40;99.90;;;;;;5085515;28;20223;-68
2022/07/02 07:24:06;;;;;;;44.60;41.00;;;14.40;99.90;;;;;;5093488;28;20190;-67
2022/07/02 07:26:33;;;;;;;46.50;42.80;;;14.40;99.90;;;;;;5064472;28;20183;-68
2022/07/02 07:29:01;;;;;;;46.50;43.10;;;14.30;99.90;;;;;;5093583;28;20203;-67
2022/07/02 07:31:29;;;;;;;46.60;43.00;;;14.20;99.90;;;;;;5092871;28;20253;-67
2022/07/02 07:33:57;;;;;;;47.07;43.10;;;14.20;99.90;;;;;;5093524;28;20274;-68
2022/07/02 07:36:29;;;;;;;48.13;43.97;;;14.30;99.90;;;;;;5092589;28;20178;-66
2022/07/02 07:38:57;;;;;;;50.10;45.83;;;14.40;99.90;;;;;;5093405;28;20187;-67
2022/07/02 07:41:25;;;;;;;51.63;47.53;;;14.50;99.90;;;;;;5093537;28;20175;-67
2022/07/02 07:43:52;;;;;;;51.23;46.90;;;14.50;99.90;;;;;;5093397;28;20171;-67
2022/07/02 07:46:20;;;;;;;54.30;49.17;;;14.50;99.90;;;;;;5092753;28;20203;-66
2022/07/02 07:48:48;;;;;;;55.53;49.80;;;14.60;99.90;;;;;;5093310;28;20203;-67
2022/07/02 07:51:16;;;;;;;56.20;50.67;;;14.60;99.90;;;;;;5093230;28;20211;-66
2022/07/02 07:53:44;;;;;;;54.13;48.50;;;14.60;99.90;;;;;;5092535;28;20644;-66
2022/07/02 07:56:18;;;;;;;57.77;52.27;;;14.60;99.90;;;;;;5074287;28;20212;-66
2022/07/02 07:58:47;;;;;;;55.10;50.47;;;14.60;99.90;;;;;;5093075;28;20178;-67
2022/07/02 08:01:14;;;;;;;56.13;51.03;;;14.60;99.90;;;;;;5093093;28;20686;-67
2022/07/02 08:03:42;;;;;;;53.47;48.73;;;14.60;99.90;;;;;;5092856;28;20206;-67
2022/07/02 08:06:09;;;;;;;55.17;50.17;;;14.50;99.90;;;;;;5092529;28;20266;-66
2022/07/02 08:08:37;;;;;;;54.83;50.00;;;14.50;99.90;;;;;;5080706;28;20184;-66
2022/07/02 08:11:04;;;;;;;58.43;52.77;;;14.40;99.90;;;;;;5092887;28;20210;-67
2022/07/02 08:13:32;;;;;;;57.50;52.23;;;14.40;99.90;;;;;;5092640;28;20186;-65
2022/07/02 08:16:02;;;;;;;58.57;52.80;;;14.40;99.90;;;;;;5092705;28;20572;-66
2022/07/02 08:18:29;;;;;;;58.43;52.90;;;14.50;99.90;;;;;;5092003;28;20179;-66
2022/07/02 08:20:59;;;;;;;58.83;52.90;;;14.40;99.90;;;;;;5092230;28;20190;-66
2022/07/02 08:23:27;;;;;;;59.90;54.37;;;14.40;99.90;;;;;;5092641;28;20209;-66
2022/07/02 08:25:56;;;;;;;59.57;53.30;;;14.50;99.90;;;;;;5092585;28;20170;-67
2022/07/02 08:28:24;;;;;;;59.43;53.20;;;14.50;99.90;;;;;;5091976;28;20279;-66
2022/07/02 08:30:51;;;;;;;60.07;54.07;;;14.50;99.90;;;;;;5092437;28;20668;-66
2022/07/02 08:33:19;;;;;;;60.80;54.87;;;14.50;99.90;;;;;;5092410;28;20175;-65
2022/07/02 08:35:46;;;;;;;59.83;53.83;;;14.50;99.90;;;;;;5092232;28;20186;-66
2022/07/02 08:38:14;;;;;;;60.57;54.47;;;14.50;99.90;;;;;;5091959;28;20189;-67
2022/07/02 08:40:45;;;;;;;65.13;56.40;;;14.50;99.90;;;;;;5074170;28;20179;-66
2022/07/02 08:43:14;;;;;;;65.00;58.57;;;14.50;99.90;;;;;;5092910;28;20175;-67
2022/07/02 08:45:43;;;;;;;62.80;56.70;;;14.50;99.90;;;;;;5093327;28;20336;-67
2022/07/02 08:48:12;;;;;;;65.33;58.60;;;14.50;99.90;;;;;;5092622;28;20205;-67
2022/07/02 08:50:40;;;;;;;65.20;57.27;;;14.60;99.90;;;;;;5092779;28;20243;-67
2022/07/02 08:53:09;;;;;;;63.73;57.43;;;14.60;99.90;;;;;;5075034;28;20669;-67
2022/07/02 08:55:37;;;;;;;66.07;59.60;;;14.60;99.90;;;;;;5092593;28;20198;-67
2022/07/02 08:58:06;;;;;;;65.10;59.07;;;14.60;99.90;;;;;;5092636;28;20175;-68
2022/07/02 09:00:33;;;;;;;67.30;60.20;;;14.60;99.90;;;;;;5093256;28;20202;-68
2022/07/02 09:03:02;;;;;;;66.73;59.63;;;14.60;99.90;;;;;;5093582;28;20170;-68
2022/07/02 09:05:30;;;;;;;63.67;57.73;;;14.60;99.90;;;;;;5092884;28;20227;-68
2022/07/02 09:07:58;;;;;;;66.20;59.67;;;14.60;99.90;;;;;;5073159;28;20174;-68
2022/07/02 09:10:27;;;;;;;65.47;58.67;;;14.50;99.90;;;;;;5073046;28;20237;-67
2022/07/02 09:12:56;;;;;;;64.27;57.90;;;14.60;99.90;;;;;;5073118;28;20263;-67
2022/07/02 09:15:24;;;;;;;63.87;57.40;;;14.60;99.90;;;;;;5078915;28;20239;-68
2022/07/02 09:17:52;;;;;;;62.50;55.80;;;14.60;99.90;;;;;;5093104;28;20257;-67
2022/07/02 09:20:20;;;;;;;62.13;56.00;;;14.50;99.90;;;;;;5092239;28;20178;-67
2022/07/02 09:22:52;;;;;;;62.27;56.40;;;14.50;99.90;;;;;;5092925;28;20538;-66
2022/07/02 09:25:27;;;;;;;64.43;58.07;;;14.60;99.90;;;;;;5092385;28;20190;-67
2022/07/02 09:28:07;;;;;;;60.43;54.83;;;14.50;99.90;;;;;;5075163;28;20229;-67
2022/07/02 09:30:36;;;;;;;59.77;53.93;;;14.50;99.90;;;;;;5092960;28;20276;-67
2022/07/02 09:33:33;;;;;;;63.77;57.00;;;14.50;99.90;;;;;;5074380;28;20187;-67
2022/07/02 09:36:08;;;;;;;62.53;56.27;;;14.50;99.90;;;;;;5082946;28;20270;-67
2022/07/02 09:38:49;;;;;;;63.13;57.07;;;14.50;99.90;;;;;;5090581;28;20196;-67
2022/07/02 09:41:23;;;;;;;71.13;63.77;;;14.50;99.90;;;;;;5092921;28;20183;-67
2022/07/02 09:44:11;;;;;;;66.80;60.53;;;14.50;99.90;;;;;;5092605;28;20640;-68
2022/07/02 09:46:44;;;;;;;70.00;62.40;;;14.50;99.90;;;;;;5092590;28;20227;-67
2022/07/02 09:49:12;;;;;;;66.33;59.63;;;14.50;99.90;;;;;;5092565;28;20187;-67
2022/07/02 09:52:13;;;;;;;65.53;59.30;;;14.50;99.90;;;;;;5092843;28;20178;-67
2022/07/02 09:54:41;;;;;;;70.67;64.00;;;14.50;99.90;;;;;;5092368;28;20186;-67
2022/07/02 09:57:11;;;;;;;66.77;60.17;;;14.50;99.90;;;;;;5083134;28;20195;-68
2022/07/02 09:59:40;;;;;;;65.23;58.43;;;14.50;99.90;;;;;;5094293;28;20190;-67
2022/07/02 10:02:22;;;;;;;66.93;60.03;;;14.50;99.90;;;;;;5096523;28;20656;-68
2022/07/02 10:04:55;;;;;;;66.37;59.30;;;14.50;99.90;;;;;;5096396;28;20261;-68
2022/07/02 10:07:24;;;;;;;62.50;56.43;;;14.50;99.90;;;;;;5096372;28;20652;-68
2022/07/02 10:09:52;;;;;;;65.23;58.70;;;14.40;99.90;;;;;;5096269;28;20252;-68
2022/07/02 10:12:20;;;;;;;63.23;57.67;;;14.30;99.90;;;;;;5096475;28;20278;-67
2022/07/02 10:14:50;;;;;;;62.20;56.30;;;14.20;99.90;;;;;;5096318;28;20182;-67
2022/07/02 10:17:18;;;;;;;63.43;57.40;;;14.10;99.90;;;;;;5095992;28;20278;-66
2022/07/02 10:19:45;;;;;;;65.13;59.50;;;14.00;99.90;;;;;;5075477;28;20277;-66
2022/07/02 10:22:13;;;;;;;63.97;58.30;;;13.90;99.90;;;;;;5089267;28;20174;-66
2022/07/02 10:24:42;;;;;;;64.57;58.97;;;13.90;99.90;;;;;;5093479;28;20183;-66
2022/07/02 10:27:09;;;;;;;63.70;58.07;;;13.80;99.90;;;;;;5086201;28;20270;-66
2022/07/02 10:29:38;;;;;;;61.80;56.30;;;13.80;99.90;;;;;;5084833;28;20225;-66
2022/07/02 10:32:30;;;;;;;61.73;56.27;;;13.80;99.90;;;;;;5086861;28;20201;-66
2022/07/02 10:35:11;;;;;;;62.03;56.73;;;13.90;99.90;;;;;;5095868;28;20257;-66
2022/07/02 10:37:42;;;;;;;61.50;55.83;;;13.90;99.90;;;;;;5092613;28;20178;-67
2022/07/02 10:40:16;;;;;;;62.50;56.97;;;13.90;99.90;;;;;;5081003;28;20667;-68
2022/07/02 10:42:47;;;;;;;61.43;55.90;;;13.90;99.90;;;;;;5075434;28;20221;-67
2022/07/02 10:45:16;;;;;;;60.83;55.57;;;14.00;99.90;;;;;;5075437;28;20233;-68
2022/07/02 10:48:13;;;;;;;62.57;56.80;;;14.00;99.90;;;;;;5075492;28;20175;-67
2022/07/02 10:50:45;;;;;;;63.60;57.37;;;14.10;99.90;;;;;;5054955;28;20216;-68
2022/07/02 10:53:24;;;;;;;63.97;57.87;;;14.10;99.90;;;;;;5075514;28;20171;-67
2022/07/02 10:56:02;;;;;;;65.23;59.00;;;14.20;99.90;;;;;;5075105;28;20194;-67
2022/07/02 10:58:36;;;;;;;62.93;57.23;;;14.20;99.90;;;;;;5075069;28;20173;-67
2022/07/02 11:01:15;;;;;;;61.97;56.33;;;14.20;99.90;;;;;;5075191;28;20660;-68
2022/07/02 11:04:01;;;;;;;63.70;58.00;;;14.30;99.90;;;;;;5075957;28;20171;-67
2022/07/02 11:06:33;;;;;;;61.87;56.67;;;14.20;99.90;;;;;;5081942;28;20172;-67
2022/07/02 11:09:07;;;;;;;62.30;56.77;;;14.20;99.90;;;;;;5084994;28;20611;-67
2022/07/02 11:11:40;;;;;;;60.67;55.67;;;14.30;99.90;;;;;;5091238;28;20182;-68
2022/07/02 11:14:12;;;;;;;62.63;57.00;;;14.30;99.90;;;;;;5095251;28;20171;-68
2022/07/02 11:16:51;;;;;;;62.63;56.97;;;14.30;99.90;;;;;;5076859;28;20243;-68
2022/07/02 11:19:28;;;;;;;63.27;57.43;;;14.20;99.90;;;;;;5095086;28;20183;-68
2022/07/02 11:22:02;;;;;;;65.27;58.93;;;14.20;99.90;;;;;;5050339;28;20679;-68
2022/07/02 11:24:32;;;;;;;65.23;59.70;;;14.20;99.90;;;;;;5088331;28;20192;-67
2022/07/02 11:27:02;;;;;;;61.97;56.03;;;14.20;99.90;;;;;;5094739;28;20223;-67
2022/07/02 11:29:32;;;;;;;65.13;58.60;;;14.20;99.90;;;;;;5094684;28;20182;-68
2022/07/02 11:32:00;;;;;;;64.43;57.90;;;14.20;99.90;;;;;;5095082;28;20235;-67
2022/07/02 11:34:32;;;;;;;67.67;58.67;;;14.20;99.90;;;;;;5076590;28;20183;-68
2022/07/02 11:37:01;;;;;;;70.57;58.33;;;14.20;99.90;;;;;;5094607;28;20175;-67
2022/07/02 11:39:29;;;;;;;62.63;56.33;;;14.20;99.90;;;;;;5072588;28;20203;-67
2022/07/02 11:41:56;;;;;;;62.50;56.43;;;14.30;99.90;;;;;;5056476;28;20265;-67
2022/07/02 11:44:28;;;;;;;63.07;57.17;;;14.30;99.90;;;;;;5074265;28;20175;-67
2022/07/02 11:47:00;;;;;;;61.50;55.30;;;14.30;99.90;;;;;;5074195;28;20653;-68
2022/07/02 11:49:38;;;;;;;61.87;55.57;;;14.30;99.90;;;;;;5074043;28;20192;-67
2022/07/02 11:52:06;;;;;;;62.43;55.77;;;14.30;99.90;;;;;;5074202;28;20611;-67
2022/07/02 11:54:40;;;;;;;65.27;57.50;;;14.20;99.90;;;;;;5056030;28;20183;-67
2022/07/02 11:57:07;;;;;;;63.23;56.53;;;14.20;99.90;;;;;;5073964;28;20180;-67
2022/07/02 11:59:34;;;;;;;67.47;57.73;;;14.20;99.90;;;;;;5081385;28;20180;-66
2022/07/02 12:02:02;;;;;;;70.33;62.83;;;14.20;99.90;;;;;;5067144;28;20248;-67
2022/07/02 12:04:29;;;;;;;63.47;57.00;;;14.20;99.90;;;;;;5094158;28;20179;-67
2022/07/02 12:07:00;;;;;;;64.73;58.43;;;14.30;99.90;;;;;;5094219;28;20185;-67
2022/07/02 12:09:28;;;;;;;64.20;57.43;;;14.30;99.90;;;;;;5075834;28;20198;-67
2022/07/02 12:11:56;;;;;;;63.80;57.30;;;14.30;99.90;;;;;;5075848;28;20649;-67
2022/07/02 12:14:29;;;;;;;65.73;59.07;;;14.40;99.90;;;;;;5093854;28;20282;-67
2022/07/02 12:16:58;;;;;;;66.10;58.87;;;14.30;99.90;;;;;;5093763;28;20260;-67
2022/07/02 12:19:33;;;;;;;66.67;60.03;;;14.40;99.90;;;;;;5093763;28;20684;-67
2022/07/02 12:22:01;;;;;;;66.43;59.90;;;14.40;99.90;;;;;;5093944;28;20189;-67
2022/07/02 12:24:34;;;;;;;62.87;57.27;;;14.40;99.90;;;;;;5093467;28;20186;-66
2022/07/02 12:27:04;;;;;;;61.43;55.77;;;14.50;99.90;;;;;;5093525;28;20231;-66
2022/07/02 12:29:58;;;;;;;61.80;56.63;;;14.60;99.90;;;;;;5093554;28;20285;-67
2022/07/02 12:32:38;;;;;;;64.03;57.93;;;14.60;99.90;;;;;;5075464;28;20548;-67
2022/07/02 12:35:12;;;;;;;62.73;57.53;;;14.50;99.90;;;;;;5093448;28;20186;-66
2022/07/02 12:37:46;;;;;;;63.63;57.77;;;14.50;99.90;;;;;;5076004;28;20175;-67
2022/07/02 12:40:15;;;;;;;63.10;57.60;;;14.40;99.90;;;;;;5093760;28;20641;-67
2022/07/02 12:42:45;;;;;;;61.80;56.57;;;14.40;99.90;;;;;;5093607;28;20174;-67
2022/07/02 12:45:21;;;;;;;63.93;58.20;;;14.40;99.90;;;;;;5093614;28;20236;-68
2022/07/02 12:47:59;;;;;;;63.57;57.77;;;14.40;99.90;;;;;;5093619;28;20648;-67
2022/07/02 12:50:29;;;;;;;64.00;58.20;;;14.30;99.90;;;;;;5093348;28;20312;-67
2022/07/02 12:53:01;;;;;;;62.80;57.50;;;14.30;99.90;;;;;;5093279;28;20214;-66
2022/07/02 12:55:31;;;;;;;65.53;59.90;;;14.30;99.90;;;;;;5093554;28;20194;-67
2022/07/02 12:58:00;;;;;;;67.73;61.70;;;14.30;99.90;;;;;;5092606;28;20186;-67